Time;durP1;ratioP1;P1;durP2;ratioP2;P2;SDS_P1;SDS_P2;PMS_P1;PMS_P2;Temp;Humidity;BMP_temperature;BMP_pressure;BME280_temperature;BME280_humidity;BME280_pressure;Samples;Min_cycle;Max_cycle;Signal;HPM_P1;HPM_P2
2021/03/09 00:00:55;;;;;;;28.23;20.53;;;;;;;;;;2086465;28;20175;-56
2021/03/09 00:01:56;;;;;;;28.03;18.80;;;;;;;;;;2080563;28;20188;-57
2021/03/09 00:02:56;;;;;;;26.00;19.03;;;;;;;;;;2082079;28;20175;-57
2021/03/09 00:03:57;;;;;;;28.60;20.30;;;;;;;;;;2083526;28;20795;-57
2021/03/09 00:04:57;;;;;;;28.97;20.73;;;;;;;;;;2090825;28;20233;-57
2021/03/09 00:05:57;;;;;;;30.57;20.97;;;;;;;;;;2087569;28;20172;-57
2021/03/09 00:06:57;;;;;;;30.23;19.57;;;;;;;;;;2092175;28;20266;-54
2021/03/09 00:07:58;;;;;;;29.00;20.57;;;;;;;;;;2091109;28;20253;-56
2021/03/09 00:08:58;;;;;;;31.33;20.33;;;;;;;;;;2091117;28;20215;-58
2021/03/09 00:09:58;;;;;;;36.13;20.93;;;;;;;;;;2074999;28;20263;-56
2021/03/09 00:10:58;;;;;;;29.60;19.73;;;;;;;;;;2081481;28;20263;-56
2021/03/09 00:11:59;;;;;;;28.10;20.40;;;;;;;;;;2090265;28;20183;-57
2021/03/09 00:12:59;;;;;;;33.33;20.97;;;;;;;;;;2089984;28;20184;-56
2021/03/09 00:13:59;;;;;;;31.73;21.50;;;;;;;;;;2082310;28;20271;-57
2021/03/09 00:15:00;;;;;;;29.77;20.70;;;;;;;;;;2081970;28;20176;-57
2021/03/09 00:16:00;;;;;;;32.93;20.97;;;;;;;;;;2086173;28;20637;-56
2021/03/09 00:17:00;;;;;;;26.30;19.63;;;;;;;;;;2082131;28;20176;-57
2021/03/09 00:18:01;;;;;;;30.07;21.10;;;;;;;;;;2073137;28;20185;-56
2021/03/09 00:19:01;;;;;;;29.23;19.70;;;;;;;;;;2083069;28;20203;-57
2021/03/09 00:20:03;;;;;;;35.87;20.10;;;;;;;;;;2082241;28;20910;-56
2021/03/09 00:21:03;;;;;;;32.63;21.20;;;;;;;;;;2077814;28;20181;-55
2021/03/09 00:22:04;;;;;;;34.83;21.90;;;;;;;;;;2075610;28;20173;-58
2021/03/09 00:23:05;;;;;;;36.03;22.77;;;;;;;;;;2073052;28;20205;-58
2021/03/09 00:24:05;;;;;;;35.70;21.13;;;;;;;;;;2067390;28;20244;-59
2021/03/09 00:25:06;;;;;;;33.83;21.47;;;;;;;;;;2082558;28;20582;-58
2021/03/09 00:26:06;;;;;;;33.30;21.13;;;;;;;;;;2088392;28;20207;-58
2021/03/09 00:27:09;;;;;;;34.50;20.73;;;;;;;;;;2089784;28;20176;-57
2021/03/09 00:28:09;;;;;;;34.07;22.27;;;;;;;;;;2091018;28;20190;-58
2021/03/09 00:29:09;;;;;;;35.13;21.00;;;;;;;;;;2092863;28;20270;-57
2021/03/09 00:30:10;;;;;;;32.80;22.30;;;;;;;;;;2094558;28;20199;-58
2021/03/09 00:31:10;;;;;;;29.87;20.30;;;;;;;;;;2096218;28;20194;-55
2021/03/09 00:32:11;;;;;;;33.67;21.87;;;;;;;;;;2085101;28;20224;-54
2021/03/09 00:33:11;;;;;;;38.93;22.23;;;;;;;;;;2085822;28;20168;-58
2021/03/09 00:34:11;;;;;;;38.33;22.30;;;;;;;;;;2095043;28;20199;-54
2021/03/09 00:35:11;;;;;;;35.33;23.00;;;;;;;;;;2092394;28;20195;-58
2021/03/09 00:36:12;;;;;;;38.97;23.60;;;;;;;;;;2082405;28;20173;-57
2021/03/09 00:37:12;;;;;;;41.37;24.33;;;;;;;;;;2084093;28;20177;-57
2021/03/09 00:38:12;;;;;;;36.60;23.37;;;;;;;;;;2089700;28;20168;-59
2021/03/09 00:39:13;;;;;;;36.03;23.17;;;;;;;;;;2093236;28;20179;-56
2021/03/09 00:40:13;;;;;;;35.20;23.97;;;;;;;;;;2091768;28;20266;-58
2021/03/09 00:41:13;;;;;;;35.30;21.90;;;;;;;;;;2090320;28;20645;-58
2021/03/09 00:42:14;;;;;;;36.10;23.30;;;;;;;;;;2078424;28;20750;-58
2021/03/09 00:43:14;;;;;;;35.80;24.53;;;;;;;;;;2079166;28;20347;-56
2021/03/09 00:44:14;;;;;;;36.63;22.97;;;;;;;;;;2091437;28;20194;-59
2021/03/09 00:45:15;;;;;;;38.67;24.00;;;;;;;;;;2092085;28;20175;-56
2021/03/09 00:46:15;;;;;;;37.20;23.70;;;;;;;;;;2089829;28;20176;-58
2021/03/09 00:47:15;;;;;;;34.47;23.03;;;;;;;;;;2087130;28;20660;-58
2021/03/09 00:48:15;;;;;;;33.47;22.27;;;;;;;;;;2091384;28;20277;-58
2021/03/09 00:49:16;;;;;;;40.60;24.37;;;;;;;;;;2090853;28;20172;-58
2021/03/09 00:50:16;;;;;;;35.43;23.37;;;;;;;;;;2091473;28;20168;-57
2021/03/09 00:51:16;;;;;;;40.67;25.23;;;;;;;;;;2090814;28;20187;-58
2021/03/09 00:52:17;;;;;;;38.90;25.03;;;;;;;;;;2089471;28;20561;-58
2021/03/09 00:53:17;;;;;;;44.60;25.67;;;;;;;;;;2085921;28;20176;-58
2021/03/09 00:54:17;;;;;;;36.97;24.07;;;;;;;;;;2090830;28;20294;-57
2021/03/09 00:55:18;;;;;;;37.67;24.63;;;;;;;;;;2090352;28;20424;-58
2021/03/09 00:56:18;;;;;;;38.87;24.63;;;;;;;;;;2080070;28;20655;-57
2021/03/09 00:57:18;;;;;;;35.43;24.53;;;;;;;;;;2081446;28;20657;-58
2021/03/09 00:58:18;;;;;;;40.77;25.33;;;;;;;;;;2091583;28;20711;-57
2021/03/09 00:59:18;;;;;;;38.27;23.67;;;;;;;;;;2091248;28;20213;-56
2021/03/09 01:00:19;;;;;;;42.17;26.03;;;;;;;;;;2091881;28;20263;-57
2021/03/09 01:01:19;;;;;;;38.17;24.87;;;;;;;;;;2089700;28;20183;-57
2021/03/09 01:02:19;;;;;;;37.63;22.83;;;;;;;;;;2091145;28;20650;-58
2021/03/09 01:03:20;;;;;;;41.10;24.30;;;;;;;;;;2091109;28;20172;-58
2021/03/09 01:04:20;;;;;;;38.57;25.13;;;;;;;;;;2090583;28;20233;-56
2021/03/09 01:05:21;;;;;;;39.80;25.40;;;;;;;;;;2090181;28;20317;-57
2021/03/09 01:06:21;;;;;;;42.73;25.50;;;;;;;;;;2085316;28;20262;-56
2021/03/09 01:07:21;;;;;;;40.80;24.70;;;;;;;;;;2084887;28;20225;-57
2021/03/09 01:08:22;;;;;;;42.03;26.67;;;;;;;;;;2084630;28;20175;-57
2021/03/09 01:09:22;;;;;;;39.40;24.60;;;;;;;;;;2087942;28;20207;-55
2021/03/09 01:10:22;;;;;;;42.63;26.20;;;;;;;;;;2090470;28;20180;-56
2021/03/09 01:11:22;;;;;;;41.90;26.20;;;;;;;;;;2087626;28;20194;-55
2021/03/09 01:12:23;;;;;;;41.87;26.17;;;;;;;;;;2084824;28;20286;-57
2021/03/09 01:13:23;;;;;;;47.00;27.50;;;;;;;;;;2087158;28;20203;-53
2021/03/09 01:14:23;;;;;;;47.03;27.87;;;;;;;;;;2090737;28;20214;-57
2021/03/09 01:15:24;;;;;;;46.00;29.10;;;;;;;;;;2091891;28;20220;-57
2021/03/09 01:16:24;;;;;;;46.27;28.53;;;;;;;;;;2090536;28;20211;-58
2021/03/09 01:17:24;;;;;;;49.13;27.87;;;;;;;;;;2091042;28;20164;-56
2021/03/09 01:18:24;;;;;;;45.27;27.57;;;;;;;;;;2081356;28;20707;-58
2021/03/09 01:19:25;;;;;;;45.20;28.27;;;;;;;;;;2081661;28;20812;-58
2021/03/09 01:20:26;;;;;;;48.33;28.10;;;;;;;;;;2080967;28;20657;-58
2021/03/09 01:21:26;;;;;;;49.60;30.17;;;;;;;;;;2079252;28;20227;-58
2021/03/09 01:22:27;;;;;;;46.90;29.07;;;;;;;;;;2080845;28;20230;-57
2021/03/09 01:23:27;;;;;;;49.20;30.43;;;;;;;;;;2073291;28;20204;-55
2021/03/09 01:24:27;;;;;;;55.70;32.80;;;;;;;;;;2072312;28;20247;-58
2021/03/09 01:25:28;;;;;;;51.80;32.30;;;;;;;;;;2073182;28;20185;-58
2021/03/09 01:26:29;;;;;;;54.17;33.37;;;;;;;;;;2081236;28;20899;-58
2021/03/09 01:27:29;;;;;;;53.47;32.17;;;;;;;;;;2090298;28;20187;-54
2021/03/09 01:28:30;;;;;;;56.77;32.80;;;;;;;;;;2078829;28;20288;-56
2021/03/09 01:29:30;;;;;;;60.20;33.87;;;;;;;;;;2081503;28;20176;-57
2021/03/09 01:30:30;;;;;;;58.73;34.43;;;;;;;;;;2072921;28;20219;-57
2021/03/09 01:31:30;;;;;;;59.07;35.63;;;;;;;;;;2073352;28;20185;-58
2021/03/09 01:32:31;;;;;;;61.17;36.63;;;;;;;;;;2086647;28;20210;-57
2021/03/09 01:33:31;;;;;;;60.57;36.43;;;;;;;;;;2086445;28;20163;-58
2021/03/09 01:34:31;;;;;;;62.87;36.37;;;;;;;;;;2089141;28;20544;-58
2021/03/09 01:35:31;;;;;;;58.30;37.07;;;;;;;;;;2088640;28;20723;-57
2021/03/09 01:36:32;;;;;;;64.33;37.60;;;;;;;;;;2089025;28;20217;-58
2021/03/09 01:37:32;;;;;;;64.93;37.30;;;;;;;;;;2092285;28;20652;-56
2021/03/09 01:38:32;;;;;;;65.13;36.97;;;;;;;;;;2089550;28;20196;-57
2021/03/09 01:39:32;;;;;;;65.47;37.20;;;;;;;;;;2089441;28;20191;-58
2021/03/09 01:40:33;;;;;;;64.07;37.27;;;;;;;;;;2097325;28;20172;-58
2021/03/09 01:41:33;;;;;;;71.73;39.53;;;;;;;;;;2089999;28;20160;-58
2021/03/09 01:42:34;;;;;;;70.50;41.40;;;;;;;;;;2091467;28;20652;-57
2021/03/09 01:43:34;;;;;;;77.40;42.97;;;;;;;;;;2090902;28;20252;-57
2021/03/09 01:44:35;;;;;;;71.63;42.10;;;;;;;;;;2090408;28;20198;-57
2021/03/09 01:45:35;;;;;;;72.47;42.27;;;;;;;;;;2086564;28;20691;-58
2021/03/09 01:46:36;;;;;;;81.30;43.33;;;;;;;;;;2086981;28;20191;-56
2021/03/09 01:47:41;;;;;;;75.00;42.70;;;;;;;;;;2089304;28;20652;-57
2021/03/09 01:48:43;;;;;;;74.37;41.70;;;;;;;;;;2089866;28;20525;-58
2021/03/09 01:49:43;;;;;;;73.63;41.53;;;;;;;;;;2089079;28;20191;-57
2021/03/09 01:50:44;;;;;;;76.07;42.67;;;;;;;;;;2089891;28;20639;-57
2021/03/09 01:51:45;;;;;;;68.10;42.53;;;;;;;;;;2079847;28;20525;-57
2021/03/09 01:52:46;;;;;;;73.73;42.30;;;;;;;;;;2079154;28;20200;-57
2021/03/09 01:53:47;;;;;;;74.93;42.10;;;;;;;;;;2087032;28;20207;-58
2021/03/09 01:54:48;;;;;;;76.83;42.77;;;;;;;;;;2080181;28;20227;-58
2021/03/09 01:55:49;;;;;;;67.80;41.20;;;;;;;;;;2072202;28;20632;-57
2021/03/09 01:56:49;;;;;;;81.97;42.30;;;;;;;;;;2075844;28;20184;-57
2021/03/09 01:57:49;;;;;;;81.53;45.53;;;;;;;;;;2078068;28;20243;-57
2021/03/09 01:58:51;;;;;;;83.90;43.90;;;;;;;;;;2084667;28;20180;-58
2021/03/09 01:59:52;;;;;;;78.67;43.33;;;;;;;;;;2089354;28;20176;-57
2021/03/09 02:00:52;;;;;;;80.97;45.50;;;;;;;;;;2085346;28;20229;-54
2021/03/09 02:01:53;;;;;;;76.50;43.63;;;;;;;;;;2088442;28;20614;-56
2021/03/09 02:02:53;;;;;;;86.43;47.70;;;;;;;;;;2080406;28;20218;-57
2021/03/09 02:03:54;;;;;;;84.17;43.13;;;;;;;;;;2080400;28;20208;-57
2021/03/09 02:04:54;;;;;;;74.93;44.10;;;;;;;;;;2080572;28;20171;-55
2021/03/09 02:05:54;;;;;;;88.73;44.03;;;;;;;;;;2080237;28;20183;-58
2021/03/09 02:06:55;;;;;;;86.27;46.33;;;;;;;;;;2080558;28;20239;-56
2021/03/09 02:07:55;;;;;;;90.17;44.93;;;;;;;;;;2080290;28;20268;-57
2021/03/09 02:08:56;;;;;;;87.63;45.17;;;;;;;;;;2080377;28;20700;-56
2021/03/09 02:09:56;;;;;;;87.93;47.77;;;;;;;;;;2089678;28;20198;-58
2021/03/09 02:10:56;;;;;;;89.03;45.63;;;;;;;;;;2080226;28;20222;-57
2021/03/09 02:12:03;;;;;;;93.43;50.03;;;;;;;;;;2079999;28;20168;-57
2021/03/09 02:13:09;;;;;;;93.73;48.10;;;;;;;;;;2084955;28;20180;-57
2021/03/09 02:14:27;;;;;;;87.70;47.60;;;;;;;;;;2088856;28;20261;-55
2021/03/09 02:15:39;;;;;;;90.10;46.73;;;;;;;;;;2090054;28;20778;-56
2021/03/09 02:16:43;;;;;;;81.87;45.40;;;;;;;;;;2089924;28;20187;-58
2021/03/09 02:18:02;;;;;;;88.33;47.77;;;;;;;;;;2090063;28;20767;-57
2021/03/09 02:19:21;;;;;;;87.80;48.23;;;;;;;;;;2084308;28;20674;-56
2021/03/09 02:20:24;;;;;;;92.27;48.67;;;;;;;;;;2089200;28;20262;-57
2021/03/09 02:21:43;;;;;;;89.00;48.50;;;;;;;;;;2085406;28;20160;-55
2021/03/09 02:22:49;;;;;;;94.70;49.50;;;;;;;;;;2088255;28;20175;-56
2021/03/09 02:24:12;;;;;;;94.97;48.77;;;;;;;;;;2088557;28;20349;-57
2021/03/09 02:25:17;;;;;;;95.10;48.40;;;;;;;;;;2086452;28;20616;-58
2021/03/09 02:26:36;;;;;;;97.20;48.00;;;;;;;;;;2076732;28;20543;-57
2021/03/09 02:27:44;;;;;;;95.27;47.80;;;;;;;;;;2077795;28;20560;-56
2021/03/09 02:28:54;;;;;;;93.50;47.97;;;;;;;;;;2078037;28;20187;-55
2021/03/09 02:30:13;;;;;;;102.87;50.77;;;;;;;;;;2081925;28;20180;-57
2021/03/09 02:31:13;;;;;;;101.33;50.03;;;;;;;;;;2082498;28;20670;-57
2021/03/09 02:32:15;;;;;;;94.33;48.23;;;;;;;;;;2085761;28;20210;-57
2021/03/09 02:33:19;;;;;;;91.87;46.17;;;;;;;;;;2085026;28;20196;-58
2021/03/09 02:34:30;;;;;;;97.17;49.53;;;;;;;;;;2088193;28;20200;-57
2021/03/09 02:35:31;;;;;;;90.60;47.83;;;;;;;;;;2080168;28;20263;-57
2021/03/09 02:36:32;;;;;;;103.87;49.97;;;;;;;;;;2077931;28;20539;-57
2021/03/09 02:37:35;;;;;;;98.23;51.30;;;;;;;;;;2086547;28;20186;-57
2021/03/09 02:38:49;;;;;;;93.03;49.90;;;;;;;;;;2091015;28;20194;-56
2021/03/09 02:39:50;;;;;;;96.33;49.70;;;;;;;;;;2090917;28;20669;-57
2021/03/09 02:40:53;;;;;;;97.57;50.83;;;;;;;;;;2091557;28;20222;-56
2021/03/09 02:41:56;;;;;;;94.83;49.47;;;;;;;;;;2091172;28;20657;-57
2021/03/09 02:43:01;;;;;;;101.70;51.40;;;;;;;;;;2092386;28;20183;-57
2021/03/09 02:44:02;;;;;;;92.50;49.17;;;;;;;;;;2088671;28;20179;-62
2021/03/09 02:45:02;;;;;;;100.87;51.30;;;;;;;;;;2082727;28;20180;-53
2021/03/09 02:46:03;;;;;;;96.30;50.70;;;;;;;;;;2082870;28;20205;-56
2021/03/09 02:47:04;;;;;;;90.07;49.47;;;;;;;;;;2092173;28;20254;-55
2021/03/09 02:48:06;;;;;;;95.60;51.17;;;;;;;;;;2092882;28;20206;-57
2021/03/09 02:49:07;;;;;;;102.80;51.53;;;;;;;;;;2095656;28;20175;-57
2021/03/09 02:50:09;;;;;;;95.90;49.80;;;;;;;;;;2085117;28;20248;-58
2021/03/09 02:51:10;;;;;;;95.60;49.80;;;;;;;;;;2087260;28;20207;-55
2021/03/09 02:52:18;;;;;;;96.50;50.70;;;;;;;;;;2094622;28;20199;-57
2021/03/09 02:53:19;;;;;;;94.13;49.27;;;;;;;;;;2097138;28;20186;-58
2021/03/09 02:54:20;;;;;;;91.07;50.17;;;;;;;;;;2077407;28;20732;-56
2021/03/09 02:55:22;;;;;;;97.93;52.53;;;;;;;;;;2076815;28;20175;-56
2021/03/09 02:56:23;;;;;;;102.63;52.07;;;;;;;;;;2087775;28;20686;-57
2021/03/09 02:57:24;;;;;;;101.13;51.40;;;;;;;;;;2088181;28;20164;-55
2021/03/09 02:58:25;;;;;;;93.87;50.13;;;;;;;;;;2092122;28;20180;-57
2021/03/09 02:59:27;;;;;;;99.13;50.23;;;;;;;;;;2089822;28;20172;-54
2021/03/09 03:00:27;;;;;;;98.10;54.10;;;;;;;;;;2086176;28;20180;-57
2021/03/09 03:01:28;;;;;;;96.37;51.27;;;;;;;;;;2088071;28;20180;-57
2021/03/09 03:02:28;;;;;;;100.63;49.33;;;;;;;;;;2081179;28;20183;-56
2021/03/09 03:03:31;;;;;;;103.37;51.43;;;;;;;;;;2080546;28;20192;-56
2021/03/09 03:04:31;;;;;;;97.07;52.23;;;;;;;;;;2085399;28;20200;-54
2021/03/09 03:05:32;;;;;;;104.60;53.60;;;;;;;;;;2082564;28;20239;-54
2021/03/09 03:06:33;;;;;;;95.50;52.23;;;;;;;;;;2091238;28;20270;-54
2021/03/09 03:07:34;;;;;;;94.80;51.33;;;;;;;;;;2090041;28;20257;-54
2021/03/09 03:08:35;;;;;;;100.57;53.17;;;;;;;;;;2088204;28;20180;-56
2021/03/09 03:09:36;;;;;;;98.40;51.33;;;;;;;;;;2081425;28;20207;-55
2021/03/09 03:10:38;;;;;;;102.80;51.47;;;;;;;;;;2082294;28;20172;-54
2021/03/09 03:11:40;;;;;;;92.63;50.43;;;;;;;;;;2090663;28;20188;-54
2021/03/09 03:12:40;;;;;;;97.03;51.53;;;;;;;;;;2090141;28;20199;-55
2021/03/09 03:13:41;;;;;;;100.30;53.03;;;;;;;;;;2089958;28;20569;-56
2021/03/09 03:14:42;;;;;;;94.73;51.93;;;;;;;;;;2092661;28;20194;-55
2021/03/09 03:15:42;;;;;;;102.90;52.63;;;;;;;;;;2081581;28;20175;-53
2021/03/09 03:16:43;;;;;;;97.57;52.30;;;;;;;;;;2081976;28;20183;-54
2021/03/09 03:17:44;;;;;;;99.10;50.90;;;;;;;;;;2090588;28;20535;-56
2021/03/09 03:18:45;;;;;;;97.67;52.57;;;;;;;;;;2083479;28;20176;-55
2021/03/09 03:19:45;;;;;;;99.00;50.97;;;;;;;;;;2089260;28;20167;-56
2021/03/09 03:20:47;;;;;;;103.63;53.80;;;;;;;;;;2090189;28;20630;-55
2021/03/09 03:21:47;;;;;;;100.37;53.07;;;;;;;;;;2090658;28;20176;-55
2021/03/09 03:22:49;;;;;;;99.57;50.67;;;;;;;;;;2080768;28;21033;-58
2021/03/09 03:23:49;;;;;;;110.47;55.27;;;;;;;;;;2077837;28;20259;-55
2021/03/09 03:24:50;;;;;;;100.30;54.23;;;;;;;;;;2089115;28;20644;-55
2021/03/09 03:25:51;;;;;;;105.07;55.17;;;;;;;;;;2088868;28;20550;-55
2021/03/09 03:26:52;;;;;;;102.00;54.63;;;;;;;;;;2089151;28;20274;-58
2021/03/09 03:27:53;;;;;;;105.40;54.23;;;;;;;;;;2090076;28;20183;-54
2021/03/09 03:28:54;;;;;;;110.70;55.67;;;;;;;;;;2090758;28;20182;-56
2021/03/09 03:29:55;;;;;;;103.23;55.03;;;;;;;;;;2089547;28;20186;-55
2021/03/09 03:30:55;;;;;;;103.80;56.30;;;;;;;;;;2089657;28;20846;-55
2021/03/09 03:31:56;;;;;;;118.60;57.50;;;;;;;;;;2081227;28;20597;-55
2021/03/09 03:32:56;;;;;;;118.17;59.63;;;;;;;;;;2082062;28;20684;-56
2021/03/09 03:33:57;;;;;;;108.47;55.40;;;;;;;;;;2090879;28;20538;-54
2021/03/09 03:34:57;;;;;;;120.47;60.17;;;;;;;;;;2088784;28;20188;-56
2021/03/09 03:36:03;;;;;;;115.53;55.00;;;;;;;;;;2091133;28;20167;-59
2021/03/09 03:37:03;;;;;;;109.77;56.17;;;;;;;;;;2088092;28;20221;-56
2021/03/09 03:38:04;;;;;;;108.37;57.53;;;;;;;;;;2090943;28;20276;-54
2021/03/09 03:39:05;;;;;;;111.00;57.73;;;;;;;;;;2081134;28;20172;-56
2021/03/09 03:40:07;;;;;;;109.13;57.00;;;;;;;;;;2078269;28;20187;-55
2021/03/09 03:41:08;;;;;;;113.13;55.93;;;;;;;;;;2090245;28;20508;-57
2021/03/09 03:42:09;;;;;;;104.63;56.60;;;;;;;;;;2083717;28;20172;-55
2021/03/09 03:43:10;;;;;;;113.80;58.37;;;;;;;;;;2082029;28;20207;-56
2021/03/09 03:44:10;;;;;;;118.93;58.13;;;;;;;;;;2081656;28;20245;-61
2021/03/09 03:45:11;;;;;;;116.43;57.20;;;;;;;;;;2080587;28;20168;-54
2021/03/09 03:46:12;;;;;;;110.77;55.87;;;;;;;;;;2094714;28;20172;-56
2021/03/09 03:47:12;;;;;;;107.40;56.33;;;;;;;;;;2098094;28;20180;-56
2021/03/09 03:48:12;;;;;;;110.10;52.50;;;;;;;;;;2093149;28;20178;-57
2021/03/09 03:49:12;;;;;;;109.97;55.60;;;;;;;;;;2094285;28;20160;-58
2021/03/09 03:50:14;;;;;;;111.37;56.30;;;;;;;;;;2076783;28;20256;-58
2021/03/09 03:51:15;;;;;;;109.17;54.50;;;;;;;;;;2076160;28;20182;-58
2021/03/09 03:52:22;;;;;;;110.80;56.90;;;;;;;;;;2093791;28;20339;-60
2021/03/09 03:53:28;;;;;;;110.93;54.20;;;;;;;;;;2091928;28;20251;-58
2021/03/09 03:55:07;;;;;;;102.20;55.77;;;;;;;;;;2081423;28;20211;-54
2021/03/09 03:56:21;;;;;;;104.47;49.83;;;;;;;;;;2090142;23;20254;-58
2021/03/09 03:57:26;;;;;;;104.53;55.53;;;;;;;;;;2093578;28;20174;-55
2021/03/09 03:58:44;;;;;;;109.13;53.00;;;;;;;;;;2097822;28;20554;-56
2021/03/09 03:59:46;;;;;;;110.73;55.37;;;;;;;;;;2092490;28;20221;-57
2021/03/09 04:00:47;;;;;;;108.10;54.87;;;;;;;;;;2090831;28;20178;-55
2021/03/09 04:01:47;;;;;;;104.70;56.17;;;;;;;;;;2087285;28;20176;-56
2021/03/09 04:02:48;;;;;;;107.33;56.27;;;;;;;;;;2089216;28;20184;-52
2021/03/09 04:03:50;;;;;;;111.47;56.70;;;;;;;;;;2098837;28;20186;-56
2021/03/09 04:04:51;;;;;;;112.47;54.77;;;;;;;;;;2091648;28;20178;-54
2021/03/09 04:05:52;;;;;;;103.17;52.13;;;;;;;;;;2096696;28;20193;-56
2021/03/09 04:06:53;;;;;;;110.37;58.13;;;;;;;;;;2089316;28;20195;-58
2021/03/09 04:07:54;;;;;;;113.03;57.17;;;;;;;;;;2088542;28;20201;-58
2021/03/09 04:08:59;;;;;;;105.20;56.63;;;;;;;;;;2082506;28;20196;-57
2021/03/09 04:10:00;;;;;;;110.90;55.57;;;;;;;;;;2082464;28;20270;-56
2021/03/09 04:11:00;;;;;;;111.00;57.40;;;;;;;;;;2098848;28;20171;-57
2021/03/09 04:12:01;;;;;;;97.30;51.00;;;;;;;;;;2090161;28;20556;-57
2021/03/09 04:13:02;;;;;;;103.93;54.50;;;;;;;;;;2088838;28;20711;-57
2021/03/09 04:14:03;;;;;;;101.07;53.60;;;;;;;;;;2090794;28;20168;-54
2021/03/09 04:15:04;;;;;;;107.03;57.03;;;;;;;;;;2088780;28;20176;-54
2021/03/09 04:16:05;;;;;;;101.33;53.37;;;;;;;;;;2081179;28;20188;-59
2021/03/09 04:17:06;;;;;;;103.03;53.63;;;;;;;;;;2088992;28;20179;-55
2021/03/09 04:18:06;;;;;;;100.87;55.33;;;;;;;;;;2090304;28;20168;-54
2021/03/09 04:19:07;;;;;;;98.63;50.17;;;;;;;;;;2089862;28;20999;-56
2021/03/09 04:20:08;;;;;;;104.03;53.47;;;;;;;;;;2090067;28;20197;-54
2021/03/09 04:21:08;;;;;;;97.03;53.60;;;;;;;;;;2091973;28;20168;-55
2021/03/09 04:22:09;;;;;;;106.47;53.83;;;;;;;;;;2096985;28;20651;-57
2021/03/09 04:23:10;;;;;;;104.73;53.07;;;;;;;;;;2090665;28;20632;-55
2021/03/09 04:24:11;;;;;;;105.40;55.87;;;;;;;;;;2081010;28;20180;-54
2021/03/09 04:25:12;;;;;;;94.97;52.20;;;;;;;;;;2072095;28;20185;-57
2021/03/09 04:26:12;;;;;;;104.87;53.13;;;;;;;;;;2083284;28;20200;-57
2021/03/09 04:27:23;;;;;;;96.20;51.47;;;;;;;;;;2096640;28;20274;-53
2021/03/09 04:28:23;;;;;;;98.37;52.80;;;;;;;;;;2088826;28;20170;-56
2021/03/09 04:29:23;;;;;;;99.53;53.67;;;;;;;;;;2094615;28;20654;-57
2021/03/09 04:30:24;;;;;;;105.43;54.27;;;;;;;;;;2086427;28;20168;-56
2021/03/09 04:31:25;;;;;;;104.70;52.97;;;;;;;;;;2076449;28;20187;-55
2021/03/09 04:32:26;;;;;;;106.17;55.43;;;;;;;;;;2075980;28;20287;-57
2021/03/09 04:33:27;;;;;;;102.87;54.63;;;;;;;;;;2070265;28;20180;-56
2021/03/09 04:34:28;;;;;;;104.80;53.67;;;;;;;;;;2073745;28;20160;-55
2021/03/09 04:35:28;;;;;;;104.97;52.53;;;;;;;;;;2077000;28;20193;-52
2021/03/09 04:36:29;;;;;;;99.53;51.53;;;;;;;;;;2085763;28;20651;-58
2021/03/09 04:37:30;;;;;;;108.63;55.00;;;;;;;;;;2079052;28;20181;-58
2021/03/09 04:38:31;;;;;;;99.30;51.43;;;;;;;;;;2073068;28;20165;-54
2021/03/09 04:39:31;;;;;;;101.77;51.93;;;;;;;;;;2092260;28;20550;-52
2021/03/09 04:40:32;;;;;;;101.20;52.03;;;;;;;;;;2094337;28;20770;-53
2021/03/09 04:41:32;;;;;;;101.67;53.67;;;;;;;;;;2094399;28;20646;-55
2021/03/09 04:42:33;;;;;;;97.30;51.93;;;;;;;;;;2098836;28;20171;-52
2021/03/09 04:43:33;;;;;;;102.53;54.57;;;;;;;;;;2098265;28;20193;-56
2021/03/09 04:44:34;;;;;;;106.90;52.73;;;;;;;;;;2096986;28;20930;-53
2021/03/09 04:45:34;;;;;;;95.17;50.40;;;;;;;;;;2092831;28;20671;-55
2021/03/09 04:46:35;;;;;;;94.77;50.27;;;;;;;;;;2081431;28;20189;-58
2021/03/09 04:47:36;;;;;;;100.73;51.03;;;;;;;;;;2085490;28;20598;-56
2021/03/09 04:48:37;;;;;;;96.00;50.57;;;;;;;;;;2098287;28;20203;-53
2021/03/09 04:49:37;;;;;;;105.33;52.93;;;;;;;;;;2095612;28;20277;-55
2021/03/09 04:50:38;;;;;;;99.77;50.07;;;;;;;;;;2098735;28;20167;-53
2021/03/09 04:51:38;;;;;;;88.60;48.70;;;;;;;;;;2097235;28;20663;-54
2021/03/09 04:52:38;;;;;;;89.63;46.83;;;;;;;;;;2094452;28;20245;-51
2021/03/09 04:53:39;;;;;;;89.03;46.90;;;;;;;;;;2093076;28;20179;-56
2021/03/09 04:54:39;;;;;;;91.90;50.10;;;;;;;;;;2096051;28;20182;-52
2021/03/09 04:55:39;;;;;;;90.03;47.43;;;;;;;;;;2093091;28;20225;-53
2021/03/09 04:56:40;;;;;;;82.13;46.60;;;;;;;;;;2089142;28;20183;-53
2021/03/09 04:57:41;;;;;;;85.43;46.53;;;;;;;;;;2086372;28;20267;-52
2021/03/09 04:58:41;;;;;;;85.00;46.10;;;;;;;;;;2086556;28;20272;-54
2021/03/09 04:59:41;;;;;;;85.47;44.93;;;;;;;;;;2075237;28;20193;-52
2021/03/09 05:00:42;;;;;;;88.57;47.67;;;;;;;;;;2070260;28;20232;-56
2021/03/09 05:01:42;;;;;;;81.50;44.13;;;;;;;;;;2080728;28;20180;-52
2021/03/09 05:02:44;;;;;;;85.50;44.93;;;;;;;;;;2095478;28;20228;-52
2021/03/09 05:03:44;;;;;;;78.73;45.47;;;;;;;;;;2092303;28;20656;-52
2021/03/09 05:04:44;;;;;;;84.03;45.33;;;;;;;;;;2082227;28;20180;-54
2021/03/09 05:05:45;;;;;;;84.57;44.23;;;;;;;;;;2074865;28;20197;-52
2021/03/09 05:06:45;;;;;;;78.83;43.93;;;;;;;;;;2081092;28;20203;-52
2021/03/09 05:07:46;;;;;;;81.20;46.27;;;;;;;;;;2080210;28;20279;-56
2021/03/09 05:08:46;;;;;;;79.00;44.27;;;;;;;;;;2081624;28;20191;-57
2021/03/09 05:09:47;;;;;;;84.47;45.30;;;;;;;;;;2087010;28;20218;-55
2021/03/09 05:10:47;;;;;;;79.40;43.87;;;;;;;;;;2080733;28;20231;-54
2021/03/09 05:11:48;;;;;;;82.53;44.13;;;;;;;;;;2082384;28;20591;-54
2021/03/09 05:12:49;;;;;;;79.37;43.47;;;;;;;;;;2095505;28;20206;-53
2021/03/09 05:13:49;;;;;;;74.07;41.83;;;;;;;;;;2082163;28;20184;-54
2021/03/09 05:14:49;;;;;;;66.27;41.97;;;;;;;;;;2087455;28;20172;-53
2021/03/09 05:15:49;;;;;;;67.57;39.97;;;;;;;;;;2089280;28;20191;-52
2021/03/09 05:16:50;;;;;;;77.43;44.10;;;;;;;;;;2097254;28;20244;-53
2021/03/09 05:17:50;;;;;;;69.43;40.77;;;;;;;;;;2091205;28;20175;-54
2021/03/09 05:18:50;;;;;;;72.67;40.27;;;;;;;;;;2080278;28;20228;-55
2021/03/09 05:19:50;;;;;;;75.20;41.23;;;;;;;;;;2088030;28;20601;-55
2021/03/09 05:20:51;;;;;;;72.10;41.13;;;;;;;;;;2081271;28;20177;-56
2021/03/09 05:21:51;;;;;;;69.87;41.07;;;;;;;;;;2087975;28;20171;-56
2021/03/09 05:22:51;;;;;;;68.93;41.10;;;;;;;;;;2082442;28;20227;-56
2021/03/09 05:23:51;;;;;;;70.57;41.23;;;;;;;;;;2082369;28;20225;-55
2021/03/09 05:24:52;;;;;;;63.13;38.90;;;;;;;;;;2096201;28;20651;-52
2021/03/09 05:25:52;;;;;;;73.93;41.90;;;;;;;;;;2090495;28;20192;-53
2021/03/09 05:26:53;;;;;;;65.80;37.83;;;;;;;;;;2097317;28;20183;-56
2021/03/09 05:27:53;;;;;;;61.73;39.33;;;;;;;;;;2097830;28;20549;-54
2021/03/09 05:28:53;;;;;;;72.33;41.37;;;;;;;;;;2091825;28;20176;-56
2021/03/09 05:29:53;;;;;;;74.80;41.97;;;;;;;;;;2081071;28;20211;-54
2021/03/09 05:30:54;;;;;;;75.43;43.13;;;;;;;;;;2074122;28;20188;-56
2021/03/09 05:31:54;;;;;;;65.10;38.63;;;;;;;;;;2081523;28;20172;-56
2021/03/09 05:32:56;;;;;;;65.63;39.87;;;;;;;;;;2081970;28;20246;-56
2021/03/09 05:33:56;;;;;;;65.60;38.73;;;;;;;;;;2081707;28;20251;-56
2021/03/09 05:34:57;;;;;;;66.63;39.93;;;;;;;;;;2081915;28;20774;-59
2021/03/09 05:35:57;;;;;;;69.13;40.80;;;;;;;;;;2081471;28;20203;-56
2021/03/09 05:36:57;;;;;;;66.87;41.83;;;;;;;;;;2073322;28;20169;-55
2021/03/09 05:37:57;;;;;;;61.67;39.20;;;;;;;;;;2077366;28;20182;-56
2021/03/09 05:38:58;;;;;;;74.27;42.00;;;;;;;;;;2079725;28;20180;-51
2021/03/09 05:39:58;;;;;;;64.93;40.27;;;;;;;;;;2081258;28;20180;-54
2021/03/09 05:40:59;;;;;;;72.07;42.33;;;;;;;;;;2081428;28;20175;-51
2021/03/09 05:41:59;;;;;;;73.77;41.43;;;;;;;;;;2076649;28;20204;-53
2021/03/09 05:42:59;;;;;;;70.37;42.53;;;;;;;;;;2090771;28;20187;-54
2021/03/09 05:44:01;;;;;;;70.90;41.73;;;;;;;;;;2097868;28;20186;-53
2021/03/09 05:45:05;;;;;;;69.07;42.87;;;;;;;;;;2080929;28;20668;-52
2021/03/09 05:46:06;;;;;;;72.70;42.57;;;;;;;;;;2088054;28;20218;-53
2021/03/09 05:47:06;;;;;;;70.37;42.87;;;;;;;;;;2097383;28;20167;-53
2021/03/09 05:48:06;;;;;;;66.80;42.03;;;;;;;;;;2096386;28;20191;-56
2021/03/09 05:49:07;;;;;;;68.70;41.50;;;;;;;;;;2080272;28;20184;-51
2021/03/09 05:50:08;;;;;;;72.63;42.50;;;;;;;;;;2071025;28;20749;-55
2021/03/09 05:51:09;;;;;;;73.90;45.67;;;;;;;;;;2081923;28;20211;-53
2021/03/09 05:52:09;;;;;;;72.83;45.70;;;;;;;;;;2090639;28;20599;-52
2021/03/09 05:53:10;;;;;;;80.17;44.83;;;;;;;;;;2096423;28;20167;-52
2021/03/09 05:54:10;;;;;;;71.47;42.83;;;;;;;;;;2090806;28;20171;-51
2021/03/09 05:55:11;;;;;;;78.87;44.83;;;;;;;;;;2088383;28;20198;-52
2021/03/09 05:56:11;;;;;;;71.77;43.10;;;;;;;;;;2090829;28;20204;-52
2021/03/09 05:57:12;;;;;;;77.27;45.90;;;;;;;;;;2088704;28;20175;-51